createdAt,value
2019-01-30T00:01:39.217Z,17.33
2019-01-30T00:04:10.944Z,21.70
2019-01-30T00:06:42.500Z,14.70
2019-01-30T00:09:13.907Z,15.43
2019-01-30T00:11:45.421Z,19.43
2019-01-30T00:14:16.949Z,15.07
2019-01-30T00:16:48.418Z,13.30
2019-01-30T00:19:19.831Z,14.77
2019-01-30T00:21:51.367Z,12.03
2019-01-30T00:24:22.888Z,17.17
2019-01-30T00:26:54.329Z,15.53
2019-01-30T00:29:25.767Z,18.57
2019-01-30T00:31:57.202Z,18.03
2019-01-30T00:34:28.628Z,18.53
2019-01-30T00:37:01.001Z,20.13
2019-01-30T00:39:33.500Z,17.20
2019-01-30T00:42:05.000Z,19.53
2019-01-30T00:44:36.492Z,17.03
2019-01-30T00:47:15.749Z,18.47
2019-01-30T00:49:41.109Z,21.80
2019-01-30T00:52:12.517Z,17.60
2019-01-30T00:54:44.008Z,18.13
2019-01-30T00:57:15.690Z,16.07
2019-01-30T00:59:47.234Z,15.57
2019-01-30T01:02:18.842Z,12.57
2019-01-30T01:04:50.285Z,12.87
2019-01-30T01:07:21.997Z,15.07
2019-01-30T01:09:53.451Z,17.30
2019-01-30T01:12:24.968Z,15.07
2019-01-30T01:14:56.414Z,15.37
2019-01-30T01:17:28.051Z,21.20
2019-01-30T01:19:59.537Z,16.37
2019-01-30T01:22:31.005Z,18.77
2019-01-30T01:25:02.492Z,15.63
2019-01-30T01:27:33.920Z,17.60
2019-01-30T01:30:06.933Z,22.27
2019-01-30T01:32:38.445Z,22.63
2019-01-30T01:35:10.169Z,24.07
2019-01-30T01:37:41.916Z,23.30
2019-01-30T01:40:14.490Z,24.40
2019-01-30T01:42:45.902Z,20.93
2019-01-30T01:45:19.005Z,25.77
2019-01-30T01:47:50.428Z,22.57
2019-01-30T01:50:22.258Z,24.60
2019-01-30T01:52:53.666Z,23.27
2019-01-30T01:55:25.153Z,26.60
2019-01-30T01:57:56.655Z,24.00
2019-01-30T02:00:35.193Z,28.63
2019-01-30T02:03:01.450Z,21.93
2019-01-30T02:05:32.982Z,28.95
2019-01-30T02:08:04.434Z,23.33
2019-01-30T02:10:36.918Z,25.13
2019-01-30T02:13:08.431Z,22.63
2019-01-30T02:15:39.928Z,21.07
2019-01-30T02:18:11.407Z,24.23
2019-01-30T02:20:42.945Z,25.13
2019-01-30T02:23:14.419Z,23.00
2019-01-30T02:25:45.978Z,22.07
2019-01-30T02:28:17.468Z,22.73
2019-01-30T02:30:48.960Z,26.83
2019-01-30T02:33:20.451Z,19.77
2019-01-30T02:35:51.950Z,24.57
2019-01-30T02:38:23.780Z,21.03
2019-01-30T02:40:55.329Z,18.67
2019-01-30T02:43:26.800Z,19.07
2019-01-30T02:45:58.339Z,22.27
2019-01-30T02:48:29.943Z,18.57
2019-01-30T02:51:01.561Z,19.20
2019-01-30T02:53:32.990Z,17.90
2019-01-30T02:56:04.566Z,22.10
2019-01-30T02:58:36.014Z,23.27
2019-01-30T03:01:07.629Z,17.27
2019-01-30T03:03:39.053Z,19.57
2019-01-30T03:06:10.477Z,16.67
2019-01-30T03:08:41.987Z,21.43
2019-01-30T03:11:13.527Z,18.20
2019-01-30T03:13:44.934Z,18.40
2019-01-30T03:16:16.449Z,16.77
2019-01-30T03:18:47.961Z,19.83
2019-01-30T03:21:19.405Z,20.00
2019-01-30T03:23:50.880Z,20.53
2019-01-30T03:26:22.399Z,17.30
2019-01-30T03:28:53.927Z,16.57
2019-01-30T03:31:25.425Z,16.67
2019-01-30T03:33:56.927Z,19.57
2019-01-30T03:36:28.464Z,17.60
2019-01-30T03:38:59.874Z,20.50
2019-01-30T03:41:31.497Z,15.60
2019-01-30T03:44:02.938Z,21.57
2019-01-30T03:46:34.441Z,20.23
2019-01-30T03:49:05.883Z,15.30
2019-01-30T03:51:37.478Z,20.43
2019-01-30T03:54:08.880Z,21.70
2019-01-30T03:56:40.398Z,18.83
2019-01-30T03:59:11.852Z,18.20
2019-01-30T04:01:43.496Z,17.90
2019-01-30T04:04:14.979Z,20.93
2019-01-30T04:06:46.427Z,17.03
2019-01-30T04:09:17.823Z,20.77
2019-01-30T04:11:49.414Z,17.13
2019-01-30T04:14:20.895Z,17.37
2019-01-30T04:16:52.372Z,17.10
2019-01-30T04:19:24.749Z,17.70
2019-01-30T04:21:56.179Z,18.00
2019-01-30T04:24:27.644Z,15.53
2019-01-30T04:26:59.194Z,16.07
2019-01-30T04:29:30.680Z,15.03
2019-01-30T04:32:02.170Z,14.10
2019-01-30T04:34:33.662Z,13.63
2019-01-30T04:37:05.281Z,18.95
2019-01-30T04:39:36.747Z,13.63
2019-01-30T04:42:08.241Z,13.90
2019-01-30T04:44:39.699Z,17.37
2019-01-30T04:47:11.154Z,13.07
2019-01-30T04:49:42.637Z,12.03
2019-01-30T04:52:14.121Z,13.63
2019-01-30T04:54:45.693Z,13.10
2019-01-30T04:57:17.198Z,14.60
2019-01-30T04:59:48.702Z,14.37
2019-01-30T05:02:20.208Z,16.40
2019-01-30T05:04:51.762Z,15.37
2019-01-30T05:07:23.296Z,17.70
2019-01-30T05:09:56.823Z,17.40
2019-01-30T05:12:28.278Z,16.63
2019-01-30T05:14:59.811Z,17.47
2019-01-30T05:17:31.275Z,18.93
2019-01-30T05:20:03.797Z,18.20
2019-01-30T05:22:35.408Z,16.07
2019-01-30T05:25:07.218Z,17.67
2019-01-30T05:27:38.692Z,18.57
2019-01-30T05:30:21.893Z,19.20
2019-01-30T05:32:53.850Z,15.70
2019-01-30T05:35:25.389Z,17.90
2019-01-30T05:37:56.839Z,13.63
2019-01-30T05:40:28.356Z,17.07
2019-01-30T05:42:59.831Z,16.23
2019-01-30T05:45:31.341Z,21.02
2019-01-30T05:48:02.868Z,17.13
2019-01-30T05:50:34.310Z,13.80
2019-01-30T05:53:06.012Z,20.53
2019-01-30T05:55:37.453Z,25.17
2019-01-30T05:58:08.962Z,18.90
2019-01-30T06:00:42.900Z,18.67
2019-01-30T06:03:15.367Z,18.53
2019-01-30T06:05:46.814Z,27.97
2019-01-30T06:08:18.261Z,25.07
2019-01-30T06:10:49.819Z,18.83
2019-01-30T06:13:21.252Z,22.63
2019-01-30T06:15:52.691Z,20.70
2019-01-30T06:18:24.226Z,19.13
2019-01-30T06:20:55.657Z,24.30
2019-01-30T06:23:27.262Z,21.07
2019-01-30T06:25:58.682Z,20.73
2019-01-30T06:28:30.230Z,23.57
2019-01-30T06:31:01.727Z,21.30
2019-01-30T06:33:33.294Z,24.63
2019-01-30T06:36:04.984Z,25.45
2019-01-30T06:38:36.753Z,26.83
2019-01-30T06:41:08.324Z,23.33
2019-01-30T06:43:39.772Z,27.63
2019-01-30T06:46:11.263Z,25.80
2019-01-30T06:48:42.770Z,25.33
2019-01-30T06:51:14.224Z,24.03
2019-01-30T06:53:45.764Z,23.30
2019-01-30T06:56:17.295Z,25.17
2019-01-30T06:58:48.839Z,26.47
2019-01-30T07:01:20.308Z,24.47
2019-01-30T07:03:51.812Z,24.87
2019-01-30T07:06:23.318Z,31.07
2019-01-30T07:08:54.787Z,26.53
2019-01-30T07:11:26.204Z,28.02
2019-01-30T07:13:57.729Z,26.37
2019-01-30T07:16:29.307Z,26.50
2019-01-30T07:19:00.815Z,30.50
2019-01-30T07:21:32.305Z,25.43
2019-01-30T07:24:03.726Z,29.73
2019-01-30T07:26:35.252Z,31.20
2019-01-30T07:29:06.803Z,29.72
2019-01-30T07:31:38.212Z,29.40
2019-01-30T07:34:09.669Z,28.73
2019-01-30T07:36:41.104Z,28.73
2019-01-30T07:39:12.657Z,27.77
2019-01-30T07:41:44.127Z,29.77
2019-01-30T07:44:15.678Z,30.33
2019-01-30T07:46:47.096Z,28.57
2019-01-30T07:49:18.576Z,29.83
2019-01-30T07:51:50.062Z,26.70
2019-01-30T07:54:21.608Z,26.27
2019-01-30T07:56:53.102Z,28.00
2019-01-30T07:59:24.614Z,24.70
2019-01-30T08:01:56.044Z,29.80
2019-01-30T08:04:27.590Z,30.47
2019-01-30T08:06:59.136Z,34.30
2019-01-30T08:09:30.757Z,26.27
2019-01-30T08:12:02.198Z,30.77
2019-01-30T08:14:33.725Z,28.57
2019-01-30T08:17:05.619Z,31.73
2019-01-30T08:19:37.080Z,29.33
2019-01-30T08:22:08.089Z,28.23
2019-01-30T08:24:39.986Z,24.93
2019-01-30T08:27:11.539Z,26.13
2019-01-30T08:29:43.376Z,23.40
2019-01-30T08:32:15.205Z,24.93
2019-01-30T08:34:46.693Z,25.90
2019-01-30T08:37:18.138Z,24.47
2019-01-30T08:39:49.567Z,23.37
2019-01-30T08:42:21.005Z,25.97
2019-01-30T08:44:52.533Z,26.73
2019-01-30T08:47:23.948Z,25.93
2019-01-30T08:49:55.516Z,25.60
2019-01-30T08:52:26.942Z,23.13
2019-01-30T08:54:58.570Z,24.27
2019-01-30T08:57:30.061Z,18.97
2019-01-30T09:00:01.575Z,19.67
2019-01-30T09:02:33.377Z,23.90
2019-01-30T09:05:05.753Z,21.33
2019-01-30T09:07:43.868Z,24.27
2019-01-30T09:10:13.209Z,23.90
2019-01-30T09:12:44.764Z,27.73
2019-01-30T09:15:18.035Z,23.90
2019-01-30T09:17:49.511Z,26.47
2019-01-30T09:20:22.421Z,24.23
2019-01-30T09:22:53.884Z,20.70
2019-01-30T09:25:27.430Z,25.87
2019-01-30T09:27:59.849Z,23.23
2019-01-30T09:30:36.219Z,22.83
2019-01-30T09:33:10.198Z,25.13
2019-01-30T09:35:41.808Z,25.10
2019-01-30T09:38:13.271Z,21.20
2019-01-30T09:40:44.873Z,25.40
2019-01-30T09:43:16.810Z,18.27
2019-01-30T09:45:48.398Z,23.40
2019-01-30T09:48:19.913Z,24.25
2019-01-30T09:50:51.421Z,23.53
2019-01-30T09:53:22.990Z,22.83
2019-01-30T09:55:54.527Z,25.20
2019-01-30T09:58:25.989Z,21.80
2019-01-30T10:00:57.443Z,23.27
2019-01-30T10:03:36.011Z,30.30
2019-01-30T10:06:02.134Z,22.73
2019-01-30T10:08:33.632Z,21.60
2019-01-30T10:11:06.048Z,27.50
2019-01-30T10:13:37.611Z,21.87
2019-01-30T10:16:09.115Z,22.93
2019-01-30T10:18:40.619Z,23.17
2019-01-30T10:21:12.140Z,21.43
2019-01-30T10:23:43.639Z,20.57
2019-01-30T10:26:15.089Z,23.63
2019-01-30T10:28:46.674Z,22.53
2019-01-30T10:31:18.164Z,22.90
2019-01-30T10:33:49.644Z,23.47
2019-01-30T10:36:21.083Z,23.13
2019-01-30T10:38:52.524Z,21.53
2019-01-30T10:41:24.098Z,21.33
2019-01-30T10:43:56.552Z,19.57
2019-01-30T10:46:28.107Z,21.57
2019-01-30T10:48:59.572Z,21.53
2019-01-30T10:51:31.017Z,20.67
2019-01-30T10:54:02.465Z,20.70
2019-01-30T10:56:34.028Z,18.30
2019-01-30T10:59:05.729Z,20.63
2019-01-30T11:01:37.253Z,19.00
2019-01-30T11:04:08.675Z,19.53
2019-01-30T11:06:40.110Z,17.00
2019-01-30T11:09:12.181Z,23.90
2019-01-30T11:11:43.642Z,21.47
2019-01-30T11:14:15.273Z,17.27
2019-01-30T11:16:47.960Z,20.90
2019-01-30T11:19:19.422Z,20.95
2019-01-30T11:21:50.861Z,18.85
2019-01-30T11:24:22.300Z,19.55
2019-01-30T11:26:53.957Z,20.10
2019-01-30T11:29:25.463Z,20.80
2019-01-30T11:31:56.921Z,19.77
2019-01-30T11:34:28.496Z,22.07
2019-01-30T11:37:00.267Z,28.35
2019-01-30T11:39:31.881Z,31.93
2019-01-30T11:42:03.446Z,24.50
2019-01-30T11:44:35.361Z,27.83
2019-01-30T11:47:06.805Z,22.22
2019-01-30T11:49:38.288Z,22.77
2019-01-30T11:52:09.791Z,24.53
2019-01-30T11:54:41.413Z,23.53
2019-01-30T11:57:12.880Z,21.40
2019-01-30T11:59:44.313Z,22.87
2019-01-30T12:02:15.738Z,24.27
2019-01-30T12:04:47.367Z,20.77
2019-01-30T12:07:18.837Z,24.97
2019-01-30T12:09:50.321Z,19.80
2019-01-30T12:12:21.780Z,26.27
2019-01-30T12:14:53.243Z,20.53
2019-01-30T12:17:24.843Z,22.47
2019-01-30T12:19:56.442Z,20.77
2019-01-30T12:22:28.023Z,24.90
2019-01-30T12:24:59.574Z,22.53
2019-01-30T12:27:31.097Z,21.83
2019-01-30T12:30:02.781Z,21.07
2019-01-30T12:32:34.606Z,25.30
2019-01-30T12:35:06.789Z,20.53
2019-01-30T12:37:39.525Z,19.77
2019-01-30T12:40:12.329Z,26.17
2019-01-30T12:42:44.113Z,17.40
2019-01-30T12:45:21.405Z,21.35
2019-01-30T12:47:53.887Z,21.42
2019-01-30T12:50:25.389Z,18.73
2019-01-30T12:52:56.822Z,21.60
2019-01-30T12:55:29.504Z,16.23
2019-01-30T12:58:01.320Z,18.03
2019-01-30T13:00:37.886Z,18.37
2019-01-30T13:03:09.418Z,21.33
2019-01-30T13:05:40.993Z,19.23
2019-01-30T13:08:12.453Z,22.57
2019-01-30T13:10:43.904Z,19.80
2019-01-30T13:13:15.453Z,22.17
2019-01-30T13:15:46.895Z,21.68
2019-01-30T13:18:18.917Z,20.00
2019-01-30T13:20:50.457Z,19.70
2019-01-30T13:23:22.019Z,20.93
2019-01-30T13:25:53.635Z,23.57
2019-01-30T13:28:25.181Z,24.37
2019-01-30T13:30:56.690Z,23.38
2019-01-30T13:33:28.260Z,23.83
2019-01-30T13:35:59.685Z,23.40
2019-01-30T13:38:31.133Z,22.17
2019-01-30T13:41:02.558Z,26.57
2019-01-30T13:43:34.020Z,26.30
2019-01-30T13:46:05.867Z,26.67
2019-01-30T13:48:37.308Z,26.67
2019-01-30T13:51:11.180Z,28.60
2019-01-30T13:53:42.028Z,35.87
2019-01-30T13:56:13.507Z,31.10
2019-01-30T13:58:45.080Z,31.97
2019-01-30T14:01:17.869Z,38.53
2019-01-30T14:03:49.449Z,38.57
2019-01-30T14:06:20.913Z,45.57
2019-01-30T14:08:52.409Z,35.47
2019-01-30T14:11:23.874Z,37.07
2019-01-30T14:13:55.398Z,35.07
2019-01-30T14:16:26.917Z,41.17
2019-01-30T14:18:58.425Z,39.37
2019-01-30T14:21:30.027Z,43.37
2019-01-30T14:24:01.480Z,41.53
2019-01-30T14:26:33.188Z,37.57
2019-01-30T14:29:05.106Z,40.83
2019-01-30T14:31:36.585Z,48.70
2019-01-30T14:34:08.130Z,41.67
2019-01-30T14:36:39.800Z,38.33
2019-01-30T14:39:11.369Z,134.23
2019-01-30T14:41:42.892Z,103.07
2019-01-30T14:44:14.460Z,38.77
2019-01-30T14:46:45.927Z,43.97
2019-01-30T14:49:17.360Z,40.90
2019-01-30T14:51:48.821Z,39.63
2019-01-30T14:54:20.292Z,45.63
2019-01-30T14:56:52.816Z,42.33
2019-01-30T14:59:24.288Z,42.23
2019-01-30T15:01:56.652Z,43.30
2019-01-30T15:04:29.044Z,42.90
2019-01-30T15:07:00.724Z,42.60
2019-01-30T15:09:32.191Z,44.57
2019-01-30T15:12:03.691Z,41.63
2019-01-30T15:14:35.206Z,47.58
2019-01-30T15:17:06.699Z,45.53
2019-01-30T15:19:38.285Z,38.73
2019-01-30T15:22:09.804Z,42.07
2019-01-30T15:24:41.298Z,36.20
2019-01-30T15:27:12.795Z,40.70
2019-01-30T15:29:44.264Z,40.77
2019-01-30T15:32:15.688Z,40.70
2019-01-30T15:34:47.113Z,35.57
2019-01-30T15:37:18.515Z,36.93
2019-01-30T15:39:50.006Z,35.37
2019-01-30T15:42:21.389Z,37.03
2019-01-30T15:44:52.956Z,41.67
2019-01-30T15:47:24.392Z,42.77
2019-01-30T15:49:55.853Z,42.00
2019-01-30T15:52:27.295Z,39.90
2019-01-30T15:54:58.982Z,38.97
2019-01-30T15:57:30.387Z,43.83
2019-01-30T16:00:01.939Z,48.03
2019-01-30T16:02:33.582Z,46.42
2019-01-30T16:05:05.397Z,42.70
2019-01-30T16:07:36.836Z,38.07
2019-01-30T16:10:09.718Z,42.57
2019-01-30T16:12:41.561Z,44.00
2019-01-30T16:15:17.044Z,41.77
2019-01-30T16:17:49.428Z,41.63
2019-01-30T16:20:21.134Z,41.37
2019-01-30T16:22:52.581Z,43.70
2019-01-30T16:25:24.017Z,41.50
2019-01-30T16:27:55.516Z,49.20
2019-01-30T16:30:27.083Z,44.60
2019-01-30T16:32:58.687Z,48.87
2019-01-30T16:35:31.027Z,46.57
2019-01-30T16:38:02.409Z,46.90
2019-01-30T16:40:33.816Z,50.97
2019-01-30T16:43:06.087Z,48.30
2019-01-30T16:45:38.258Z,49.80
2019-01-30T16:48:10.227Z,51.00
2019-01-30T16:50:41.632Z,52.17
2019-01-30T16:53:13.046Z,49.80
2019-01-30T16:55:44.554Z,47.97
2019-01-30T16:58:17.093Z,49.17
2019-01-30T17:00:48.656Z,47.10
2019-01-30T17:03:20.156Z,49.37
2019-01-30T17:05:51.601Z,48.53
2019-01-30T17:08:23.059Z,42.37
2019-01-30T17:10:54.580Z,43.53
2019-01-30T17:13:26.164Z,80.57
2019-01-30T17:15:57.627Z,62.43
2019-01-30T17:18:29.124Z,61.70
2019-01-30T17:21:00.668Z,47.63
2019-01-30T17:23:32.590Z,47.20
2019-01-30T17:26:04.004Z,44.47
2019-01-30T17:28:35.451Z,50.90
2019-01-30T17:31:28.346Z,45.90
2019-01-30T17:33:59.794Z,46.47
2019-01-30T17:36:31.286Z,49.85
2019-01-30T17:39:02.873Z,46.60
2019-01-30T17:41:35.519Z,46.90
2019-01-30T17:44:06.997Z,45.97
2019-01-30T17:46:38.568Z,49.20
2019-01-30T17:49:10.003Z,44.67
2019-01-30T17:51:42.983Z,46.10
2019-01-30T17:54:14.611Z,41.60
2019-01-30T17:56:46.163Z,43.57
2019-01-30T17:59:17.656Z,52.17
2019-01-30T18:01:49.116Z,45.80
2019-01-30T18:04:20.599Z,39.10
2019-01-30T18:07:10.721Z,107.92
2019-01-30T18:09:56.048Z,95.80
2019-01-30T18:12:27.453Z,49.13
2019-01-30T18:14:58.928Z,46.37
2019-01-30T18:17:30.392Z,41.13
2019-01-30T18:20:01.906Z,39.83
2019-01-30T18:22:33.415Z,44.13
2019-01-30T18:25:06.247Z,49.63
2019-01-30T18:27:37.765Z,46.23
2019-01-30T18:30:12.207Z,50.13
2019-01-30T18:32:43.895Z,50.30
2019-01-30T18:35:15.563Z,39.50
2019-01-30T18:37:47.151Z,37.47
2019-01-30T18:40:20.777Z,36.20
2019-01-30T18:42:52.632Z,41.17
2019-01-30T18:45:25.197Z,39.60
2019-01-30T18:47:56.700Z,33.93
2019-01-30T18:50:28.264Z,40.07
2019-01-30T18:52:59.690Z,36.13
2019-01-30T18:55:31.286Z,37.33
2019-01-30T18:58:02.737Z,32.67
2019-01-30T19:00:37.139Z,34.07
2019-01-30T19:03:10.747Z,36.03
2019-01-30T19:05:42.287Z,30.27
2019-01-30T19:08:13.726Z,31.37
2019-01-30T19:10:45.136Z,33.23
2019-01-30T19:13:16.650Z,39.50
2019-01-30T19:15:48.073Z,37.90
2019-01-30T19:18:19.587Z,42.47
2019-01-30T19:20:51.043Z,44.47
2019-01-30T19:23:22.527Z,40.03
2019-01-30T19:25:54.053Z,36.73
2019-01-30T19:28:25.477Z,38.50
2019-01-30T19:30:56.889Z,39.60
2019-01-30T19:33:28.316Z,42.33
2019-01-30T19:35:59.801Z,40.97
2019-01-30T19:38:31.295Z,42.43
2019-01-30T19:41:02.809Z,35.30
2019-01-30T19:43:34.269Z,41.07
2019-01-30T19:46:05.877Z,41.40
2019-01-30T19:48:37.374Z,42.60
2019-01-30T19:51:08.799Z,42.70
2019-01-30T19:53:40.249Z,39.43
2019-01-30T19:56:11.724Z,40.73
2019-01-30T19:58:43.207Z,32.43
2019-01-30T20:01:14.718Z,31.17
2019-01-30T20:03:46.161Z,94.70
2019-01-30T20:06:17.595Z,181.63
2019-01-30T20:08:49.353Z,63.60
2019-01-30T20:11:20.753Z,43.67
2019-01-30T20:13:52.262Z,40.20
2019-01-30T20:16:23.782Z,41.67
2019-01-30T20:18:55.924Z,40.30
2019-01-30T20:21:27.385Z,39.83
2019-01-30T20:23:58.818Z,31.43
2019-01-30T20:26:30.328Z,36.93
2019-01-30T20:29:01.864Z,37.50
2019-01-30T20:31:34.115Z,34.13
2019-01-30T20:34:10.443Z,35.63
2019-01-30T20:36:39.533Z,37.07
2019-01-30T20:39:12.332Z,45.85
2019-01-30T20:41:43.767Z,39.33
2019-01-30T20:44:15.606Z,37.13
2019-01-30T20:46:47.793Z,31.63
2019-01-30T20:49:19.543Z,29.10
2019-01-30T20:51:52.726Z,27.73
2019-01-30T20:54:25.277Z,28.73
2019-01-30T20:56:57.434Z,33.03
2019-01-30T20:59:28.954Z,32.90
2019-01-30T21:02:00.642Z,39.47
2019-01-30T21:04:32.136Z,39.07
2019-01-30T21:07:03.681Z,38.53
2019-01-30T21:09:35.212Z,40.53
2019-01-30T21:12:06.846Z,34.13
2019-01-30T21:14:39.434Z,34.57
2019-01-30T21:17:11.080Z,38.53
2019-01-30T21:19:42.653Z,30.10
2019-01-30T21:22:14.440Z,40.90
2019-01-30T21:24:45.987Z,36.83
2019-01-30T21:27:17.622Z,40.40
2019-01-30T21:29:49.181Z,36.20
2019-01-30T21:32:20.709Z,41.20
2019-01-30T21:34:52.353Z,34.27
2019-01-30T21:37:24.460Z,38.80
2019-01-30T21:39:56.131Z,40.27
2019-01-30T21:42:27.616Z,41.43
2019-01-30T21:44:59.211Z,40.83
2019-01-30T21:47:30.751Z,39.60
2019-01-30T21:50:02.282Z,70.63
2019-01-30T21:52:34.973Z,59.30
2019-01-30T21:55:07.973Z,47.47
2019-01-30T21:57:39.444Z,47.03
2019-01-30T22:00:14.460Z,38.43
2019-01-30T22:02:46.159Z,35.37
2019-01-30T22:05:17.903Z,33.50
2019-01-30T22:08:00.085Z,32.83
2019-01-30T22:10:24.939Z,31.47
2019-01-30T22:12:56.429Z,29.00
2019-01-30T22:15:27.970Z,32.63
2019-01-30T22:17:59.441Z,31.07
2019-01-30T22:20:30.888Z,31.57
2019-01-30T22:23:02.436Z,29.33
2019-01-30T22:25:34.025Z,33.60
2019-01-30T22:28:05.801Z,29.40
2019-01-30T22:30:37.364Z,30.67
2019-01-30T22:33:08.981Z,30.13
2019-01-30T22:35:40.492Z,35.27
2019-01-30T22:38:12.966Z,33.87
2019-01-30T22:40:45.875Z,35.97
2019-01-30T22:43:17.373Z,49.17
2019-01-30T22:45:50.638Z,45.37
2019-01-30T22:48:22.055Z,32.57
2019-01-30T22:50:53.510Z,33.83
2019-01-30T22:53:24.993Z,37.10
2019-01-30T22:55:56.525Z,35.43
2019-01-30T22:58:28.032Z,36.50
2019-01-30T23:01:55.278Z,34.00
2019-01-30T23:04:59.522Z,39.27
2019-01-30T23:08:03.993Z,36.93
2019-01-30T23:11:15.352Z,37.20
2019-01-30T23:13:59.574Z,35.00
2019-01-30T23:17:04.714Z,42.70
2019-01-30T23:20:00.972Z,36.27
2019-01-30T23:23:06.354Z,34.27
2019-01-30T23:26:08.412Z,37.40
2019-01-30T23:29:16.835Z,37.83
2019-01-30T23:32:23.934Z,33.50
2019-01-30T23:35:30.713Z,30.37
2019-01-30T23:38:40.561Z,37.37
2019-01-30T23:41:39.620Z,30.77
2019-01-30T23:44:38.127Z,32.27
2019-01-30T23:47:59.288Z,29.23
2019-01-30T23:50:49.521Z,40.90
2019-01-30T23:53:50.008Z,31.90
2019-01-30T23:56:43.422Z,34.97
2019-01-30T23:59:38.085Z,36.43
